sensor_id;sensor_type;location;lat;lon;timestamp;pressure;altitude;pressure_sealevel;temperature;humidity
18201;BME280;9226;47.858;9.594;2023-03-22T00:01:16;95054.09;;;12.39;58.29
18201;BME280;9226;47.858;9.594;2023-03-22T00:03:42;95060.00;;;12.33;58.45
18201;BME280;9226;47.858;9.594;2023-03-22T00:06:07;95054.56;;;12.25;58.60
18201;BME280;9226;47.858;9.594;2023-03-22T00:08:33;95052.34;;;12.20;58.35
18201;BME280;9226;47.858;9.594;2023-03-22T00:10:59;95042.56;;;12.11;58.54
18201;BME280;9226;47.858;9.594;2023-03-22T00:13:24;95037.94;;;12.03;58.64
18201;BME280;9226;47.858;9.594;2023-03-22T00:15:50;95034.75;;;12.00;58.87
18201;BME280;9226;47.858;9.594;2023-03-22T00:18:15;95040.75;;;12.02;58.37
18201;BME280;9226;47.858;9.594;2023-03-22T00:20:52;95039.53;;;11.96;58.84
18201;BME280;9226;47.858;9.594;2023-03-22T00:23:19;95041.50;;;11.94;58.57
18201;BME280;9226;47.858;9.594;2023-03-22T00:25:45;95036.44;;;11.91;58.63
18201;BME280;9226;47.858;9.594;2023-03-22T00:28:11;95040.34;;;11.87;58.66
18201;BME280;9226;47.858;9.594;2023-03-22T00:30:37;95032.09;;;11.80;58.83
18201;BME280;9226;47.858;9.594;2023-03-22T00:33:03;95037.56;;;11.79;58.62
18201;BME280;9226;47.858;9.594;2023-03-22T00:35:29;95037.16;;;11.73;58.74
18201;BME280;9226;47.858;9.594;2023-03-22T00:37:55;95032.41;;;11.67;58.86
18201;BME280;9226;47.858;9.594;2023-03-22T00:40:21;95030.31;;;11.61;59.08
18201;BME280;9226;47.858;9.594;2023-03-22T00:42:47;95030.19;;;11.53;59.41
18201;BME280;9226;47.858;9.594;2023-03-22T00:45:13;95034.09;;;11.49;59.39
18201;BME280;9226;47.858;9.594;2023-03-22T00:47:39;95028.38;;;11.44;59.70
18201;BME280;9226;47.858;9.594;2023-03-22T00:50:05;95023.63;;;11.37;59.88
18201;BME280;9226;47.858;9.594;2023-03-22T00:52:31;95018.31;;;11.28;61.03
18201;BME280;9226;47.858;9.594;2023-03-22T00:54:57;95014.94;;;11.26;60.61
18201;BME280;9226;47.858;9.594;2023-03-22T00:57:23;95013.28;;;11.25;60.78
18201;BME280;9226;47.858;9.594;2023-03-22T00:59:49;95011.59;;;11.23;60.85
18201;BME280;9226;47.858;9.594;2023-03-22T01:02:14;95019.69;;;11.22;60.39
18201;BME280;9226;47.858;9.594;2023-03-22T01:04:41;95013.81;;;11.18;60.47
18201;BME280;9226;47.858;9.594;2023-03-22T01:07:16;95017.72;;;11.14;60.95
18201;BME280;9226;47.858;9.594;2023-03-22T01:09:45;95016.91;;;11.14;60.74
18201;BME280;9226;47.858;9.594;2023-03-22T01:12:10;95023.44;;;11.10;60.65
18201;BME280;9226;47.858;9.594;2023-03-22T01:14:36;95019.69;;;11.02;61.01
18201;BME280;9226;47.858;9.594;2023-03-22T01:17:01;95015.63;;;10.98;60.96
18201;BME280;9226;47.858;9.594;2023-03-22T01:19:27;95011.28;;;10.97;60.52
18201;BME280;9226;47.858;9.594;2023-03-22T01:21:53;95003.16;;;10.89;60.89
18201;BME280;9226;47.858;9.594;2023-03-22T01:24:19;95005.66;;;10.81;61.38
18201;BME280;9226;47.858;9.594;2023-03-22T01:26:44;95011.38;;;10.76;61.38
18201;BME280;9226;47.858;9.594;2023-03-22T01:29:10;95014.31;;;10.73;61.73
18201;BME280;9226;47.858;9.594;2023-03-22T01:31:35;95011.22;;;10.68;61.88
18201;BME280;9226;47.858;9.594;2023-03-22T01:34:01;95011.50;;;10.65;62.02
18201;BME280;9226;47.858;9.594;2023-03-22T01:36:26;95003.69;;;10.63;62.06
18201;BME280;9226;47.858;9.594;2023-03-22T01:38:51;95001.44;;;10.59;62.80
18201;BME280;9226;47.858;9.594;2023-03-22T01:41:17;94997.94;;;10.58;62.80
18201;BME280;9226;47.858;9.594;2023-03-22T01:43:42;95005.63;;;10.61;62.09
18201;BME280;9226;47.858;9.594;2023-03-22T01:46:08;95003.53;;;10.65;62.11
18201;BME280;9226;47.858;9.594;2023-03-22T01:48:34;95003.69;;;10.63;62.67
18201;BME280;9226;47.858;9.594;2023-03-22T01:53:34;94996.41;;;10.65;62.57
18201;BME280;9226;47.858;9.594;2023-03-22T01:56:01;94990.28;;;10.65;62.66
18201;BME280;9226;47.858;9.594;2023-03-22T01:58:27;94994.44;;;10.58;63.41
18201;BME280;9226;47.858;9.594;2023-03-22T02:00:53;94985.09;;;10.63;62.70
18201;BME280;9226;47.858;9.594;2023-03-22T02:03:27;94995.84;;;10.52;63.88
18201;BME280;9226;47.858;9.594;2023-03-22T02:05:54;94996.81;;;10.61;62.60
18201;BME280;9226;47.858;9.594;2023-03-22T02:08:20;94997.81;;;10.60;62.39
18201;BME280;9226;47.858;9.594;2023-03-22T02:10:46;94995.44;;;10.57;62.97
18201;BME280;9226;47.858;9.594;2023-03-22T02:13:26;94995.69;;;10.54;62.92
18201;BME280;9226;47.858;9.594;2023-03-22T02:18:51;94987.47;;;10.47;62.18
18201;BME280;9226;47.858;9.594;2023-03-22T02:21:52;94986.56;;;10.37;63.34
18201;BME280;9226;47.858;9.594;2023-03-22T02:24:43;94980.56;;;10.35;62.86
18201;BME280;9226;47.858;9.594;2023-03-22T02:49:40;94972.28;;;9.66;67.40
18201;BME280;9226;47.858;9.594;2023-03-22T02:52:19;94977.25;;;9.59;66.95
18201;BME280;9226;47.858;9.594;2023-03-22T02:55:05;94966.91;;;9.56;67.42
18201;BME280;9226;47.858;9.594;2023-03-22T02:57:36;94961.19;;;9.51;67.24
18201;BME280;9226;47.858;9.594;2023-03-22T03:00:07;94968.59;;;9.57;66.87
18201;BME280;9226;47.858;9.594;2023-03-22T03:02:37;94978.03;;;9.50;67.30
18201;BME280;9226;47.858;9.594;2023-03-22T03:05:06;94973.97;;;9.46;68.16
18201;BME280;9226;47.858;9.594;2023-03-22T03:07:32;94970.22;;;9.49;67.96
18201;BME280;9226;47.858;9.594;2023-03-22T03:09:58;94975.97;;;9.33;70.11
18201;BME280;9226;47.858;9.594;2023-03-22T03:12:26;94968.50;;;9.38;68.19
18201;BME280;9226;47.858;9.594;2023-03-22T03:14:52;94967.63;;;9.37;68.58
18201;BME280;9226;47.858;9.594;2023-03-22T03:25:29;94975.97;;;9.33;69.40
18201;BME280;9226;47.858;9.594;2023-03-22T03:30:43;94971.84;;;9.40;69.13
18201;BME280;9226;47.858;9.594;2023-03-22T03:33:14;94976.88;;;9.43;69.05
18201;BME280;9226;47.858;9.594;2023-03-22T03:35:49;94969.91;;;9.42;69.26
18201;BME280;9226;47.858;9.594;2023-03-22T03:38:19;94965.19;;;9.46;68.67
18201;BME280;9226;47.858;9.594;2023-03-22T03:40:51;94973.16;;;9.46;68.97
18201;BME280;9226;47.858;9.594;2023-03-22T03:43:18;94971.91;;;9.50;68.61
18201;BME280;9226;47.858;9.594;2023-03-22T03:45:45;94981.66;;;9.49;68.26
18201;BME280;9226;47.858;9.594;2023-03-22T03:48:18;94982.88;;;9.45;68.90
18201;BME280;9226;47.858;9.594;2023-03-22T03:50:45;94984.69;;;9.45;68.84
18201;BME280;9226;47.858;9.594;2023-03-22T03:53:11;94985.34;;;9.37;69.73
18201;BME280;9226;47.858;9.594;2023-03-22T03:55:36;94977.56;;;9.45;69.01
18201;BME280;9226;47.858;9.594;2023-03-22T03:58:02;94970.50;;;9.46;68.64
18201;BME280;9226;47.858;9.594;2023-03-22T04:00:27;94978.31;;;9.47;68.78
18201;BME280;9226;47.858;9.594;2023-03-22T04:02:53;94986.91;;;9.39;69.36
18201;BME280;9226;47.858;9.594;2023-03-22T04:05:18;94982.94;;;9.34;69.68
18201;BME280;9226;47.858;9.594;2023-03-22T04:07:44;94990.19;;;9.32;70.22
18201;BME280;9226;47.858;9.594;2023-03-22T04:10:09;94985.59;;;9.34;70.06
18201;BME280;9226;47.858;9.594;2023-03-22T04:12:35;94990.00;;;9.23;71.01
18201;BME280;9226;47.858;9.594;2023-03-22T04:15:00;94992.38;;;9.27;70.68
18201;BME280;9226;47.858;9.594;2023-03-22T04:17:26;94988.56;;;9.19;71.42
18201;BME280;9226;47.858;9.594;2023-03-22T04:19:54;94990.63;;;9.16;71.57
18201;BME280;9226;47.858;9.594;2023-03-22T04:22:24;94994.28;;;9.24;70.96
18201;BME280;9226;47.858;9.594;2023-03-22T04:24:50;94995.47;;;9.32;70.24
18201;BME280;9226;47.858;9.594;2023-03-22T04:27:16;94994.66;;;9.20;71.06
18201;BME280;9226;47.858;9.594;2023-03-22T04:29:42;94989.75;;;9.15;71.49
18201;BME280;9226;47.858;9.594;2023-03-22T04:32:19;94994.81;;;9.18;71.65
18201;BME280;9226;47.858;9.594;2023-03-22T04:34:47;94994.53;;;9.21;70.61
18201;BME280;9226;47.858;9.594;2023-03-22T04:37:14;94991.13;;;9.10;72.05
18201;BME280;9226;47.858;9.594;2023-03-22T04:39:40;94992.78;;;9.11;72.13
18201;BME280;9226;47.858;9.594;2023-03-22T04:42:05;94991.44;;;9.16;71.33
18201;BME280;9226;47.858;9.594;2023-03-22T04:44:31;94993.84;;;9.19;71.04
18201;BME280;9226;47.858;9.594;2023-03-22T04:46:56;94987.00;;;9.17;71.03
18201;BME280;9226;47.858;9.594;2023-03-22T04:49:22;94994.81;;;9.18;70.42
18201;BME280;9226;47.858;9.594;2023-03-22T04:51:47;94993.13;;;9.17;70.80
18201;BME280;9226;47.858;9.594;2023-03-22T04:54:12;94997.56;;;9.17;70.84
18201;BME280;9226;47.858;9.594;2023-03-22T04:56:38;94997.75;;;9.04;71.48
18201;BME280;9226;47.858;9.594;2023-03-22T04:59:03;94997.16;;;9.00;71.54
18201;BME280;9226;47.858;9.594;2023-03-22T05:01:29;94999.88;;;8.89;72.53
18201;BME280;9226;47.858;9.594;2023-03-22T05:03:54;95005.47;;;8.96;71.69
18201;BME280;9226;47.858;9.594;2023-03-22T05:06:20;95001.19;;;8.83;72.92
18201;BME280;9226;47.858;9.594;2023-03-22T05:08:45;95003.13;;;8.81;72.67
18201;BME280;9226;47.858;9.594;2023-03-22T05:11:14;94993.38;;;8.82;72.09
18201;BME280;9226;47.858;9.594;2023-03-22T05:13:40;95004.28;;;8.88;71.58
18201;BME280;9226;47.858;9.594;2023-03-22T05:16:07;95001.19;;;8.83;71.94
18201;BME280;9226;47.858;9.594;2023-03-22T05:18:33;95000.72;;;8.78;72.45
18201;BME280;9226;47.858;9.594;2023-03-22T05:21:02;95003.38;;;8.78;72.54
18201;BME280;9226;47.858;9.594;2023-03-22T05:23:28;95003.78;;;8.62;73.00
18201;BME280;9226;47.858;9.594;2023-03-22T05:25:54;95009.66;;;8.66;72.85
18201;BME280;9226;47.858;9.594;2023-03-22T05:28:22;95007.88;;;8.55;73.79
18201;BME280;9226;47.858;9.594;2023-03-22T05:30:48;95011.84;;;8.49;74.21
18201;BME280;9226;47.858;9.594;2023-03-22T05:33:14;95020.25;;;8.55;74.08
18201;BME280;9226;47.858;9.594;2023-03-22T05:35:41;95017.72;;;8.64;73.39
18201;BME280;9226;47.858;9.594;2023-03-22T05:38:07;95014.69;;;8.69;73.73
18201;BME280;9226;47.858;9.594;2023-03-22T05:40:33;95022.00;;;8.77;72.87
18201;BME280;9226;47.858;9.594;2023-03-22T05:42:59;95003.13;;;8.81;72.93
18201;BME280;9226;47.858;9.594;2023-03-22T05:45:25;95012.34;;;8.87;72.40
18201;BME280;9226;47.858;9.594;2023-03-22T05:47:50;95006.69;;;9.03;71.70
18201;BME280;9226;47.858;9.594;2023-03-22T05:50:19;95001.63;;;9.00;71.77
18201;BME280;9226;47.858;9.594;2023-03-22T05:52:45;95003.00;;;9.15;71.40
18201;BME280;9226;47.858;9.594;2023-03-22T05:55:13;94996.81;;;9.26;71.01
18201;BME280;9226;47.858;9.594;2023-03-22T05:57:39;94998.00;;;9.33;70.71
18201;BME280;9226;47.858;9.594;2023-03-22T06:00:07;94999.50;;;9.47;70.22
18201;BME280;9226;47.858;9.594;2023-03-22T06:02:38;95003.88;;;9.79;69.97
18201;BME280;9226;47.858;9.594;2023-03-22T06:05:04;95002.34;;;10.07;69.31
18201;BME280;9226;47.858;9.594;2023-03-22T06:07:29;94999.72;;;10.48;68.27
18201;BME280;9226;47.858;9.594;2023-03-22T06:09:55;95003.47;;;11.06;67.37
18201;BME280;9226;47.858;9.594;2023-03-22T06:12:20;95000.25;;;11.70;64.74
18201;BME280;9226;47.858;9.594;2023-03-22T06:14:48;95003.44;;;12.31;62.98
18201;BME280;9226;47.858;9.594;2023-03-22T06:17:14;95003.22;;;12.98;60.42
18201;BME280;9226;47.858;9.594;2023-03-22T06:19:40;94994.97;;;13.73;58.40
18201;BME280;9226;47.858;9.594;2023-03-22T06:22:05;94988.19;;;14.39;56.34
18201;BME280;9226;47.858;9.594;2023-03-22T06:24:31;94998.91;;;14.82;52.75
18201;BME280;9226;47.858;9.594;2023-03-22T06:26:56;94999.41;;;15.61;52.53
18201;BME280;9226;47.858;9.594;2023-03-22T06:29:21;94994.06;;;15.94;49.27
18201;BME280;9226;47.858;9.594;2023-03-22T06:31:47;94994.13;;;16.50;48.99
18201;BME280;9226;47.858;9.594;2023-03-22T06:34:12;95005.84;;;16.97;47.33
18201;BME280;9226;47.858;9.594;2023-03-22T06:36:37;94992.56;;;17.58;47.42
18201;BME280;9226;47.858;9.594;2023-03-22T06:39:03;94981.19;;;18.17;45.20
18201;BME280;9226;47.858;9.594;2023-03-22T06:41:29;94987.88;;;18.81;44.32
18201;BME280;9226;47.858;9.594;2023-03-22T06:43:55;94983.78;;;19.15;42.21
18201;BME280;9226;47.858;9.594;2023-03-22T06:46:20;94995.34;;;19.52;41.38
18201;BME280;9226;47.858;9.594;2023-03-22T06:48:46;95000.53;;;20.47;41.73
18201;BME280;9226;47.858;9.594;2023-03-22T06:51:11;94995.16;;;20.82;38.90
18201;BME280;9226;47.858;9.594;2023-03-22T06:53:36;94995.22;;;21.43;39.31
18201;BME280;9226;47.858;9.594;2023-03-22T06:56:02;94997.13;;;21.49;37.83
18201;BME280;9226;47.858;9.594;2023-03-22T06:58:27;95001.16;;;22.07;36.95
18201;BME280;9226;47.858;9.594;2023-03-22T07:00:56;94995.09;;;21.72;35.37
18201;BME280;9226;47.858;9.594;2023-03-22T07:03:21;94983.84;;;22.88;35.31
18201;BME280;9226;47.858;9.594;2023-03-22T07:05:47;94993.13;;;23.19;34.22
18201;BME280;9226;47.858;9.594;2023-03-22T07:08:12;94992.44;;;23.30;34.07
18201;BME280;9226;47.858;9.594;2023-03-22T07:10:38;94999.09;;;24.37;34.05
18201;BME280;9226;47.858;9.594;2023-03-22T07:13:05;95005.56;;;24.36;33.17
18201;BME280;9226;47.858;9.594;2023-03-22T07:15:30;95004.72;;;23.72;32.60
18201;BME280;9226;47.858;9.594;2023-03-22T07:17:58;95010.56;;;23.69;33.46
18201;BME280;9226;47.858;9.594;2023-03-22T07:20:23;95010.25;;;24.72;33.16
18201;BME280;9226;47.858;9.594;2023-03-22T07:22:49;95009.28;;;24.42;32.42
18201;BME280;9226;47.858;9.594;2023-03-22T07:25:15;95020.22;;;24.79;31.83
18201;BME280;9226;47.858;9.594;2023-03-22T07:27:41;95010.66;;;25.13;32.03
18201;BME280;9226;47.858;9.594;2023-03-22T07:30:06;95009.94;;;25.73;31.66
18201;BME280;9226;47.858;9.594;2023-03-22T07:32:32;95012.69;;;26.15;30.75
18201;BME280;9226;47.858;9.594;2023-03-22T07:34:57;95005.38;;;26.28;29.80
18201;BME280;9226;47.858;9.594;2023-03-22T07:37:23;95012.25;;;26.30;29.88
18201;BME280;9226;47.858;9.594;2023-03-22T07:39:48;95010.94;;;25.91;29.26
18201;BME280;9226;47.858;9.594;2023-03-22T07:42:14;95001.81;;;26.69;29.11
18201;BME280;9226;47.858;9.594;2023-03-22T07:44:39;95003.88;;;26.44;28.97
18201;BME280;9226;47.858;9.594;2023-03-22T07:47:05;94993.13;;;26.61;28.67
18201;BME280;9226;47.858;9.594;2023-03-22T07:49:30;95006.50;;;26.98;28.11
18201;BME280;9226;47.858;9.594;2023-03-22T07:51:56;95004.22;;;27.18;28.36
18201;BME280;9226;47.858;9.594;2023-03-22T07:54:22;95003.75;;;27.74;27.56
18201;BME280;9226;47.858;9.594;2023-03-22T07:56:47;95002.00;;;27.68;27.32
18201;BME280;9226;47.858;9.594;2023-03-22T07:59:14;94995.63;;;27.62;27.29
18201;BME280;9226;47.858;9.594;2023-03-22T08:01:41;94993.63;;;27.57;26.60
18201;BME280;9226;47.858;9.594;2023-03-22T08:04:06;94998.72;;;27.94;26.88
18201;BME280;9226;47.858;9.594;2023-03-22T08:06:31;94994.63;;;27.80;27.74
18201;BME280;9226;47.858;9.594;2023-03-22T08:08:57;94987.19;;;28.21;27.60
18201;BME280;9226;47.858;9.594;2023-03-22T08:11:23;94993.56;;;28.44;27.21
18201;BME280;9226;47.858;9.594;2023-03-22T08:13:49;94996.34;;;28.15;27.05
18201;BME280;9226;47.858;9.594;2023-03-22T08:16:14;94996.72;;;28.69;27.07
18201;BME280;9226;47.858;9.594;2023-03-22T08:18:40;95002.13;;;28.19;25.68
18201;BME280;9226;47.858;9.594;2023-03-22T08:21:05;95001.97;;;28.93;26.43
18201;BME280;9226;47.858;9.594;2023-03-22T08:23:31;94999.47;;;29.09;25.04
18201;BME280;9226;47.858;9.594;2023-03-22T08:25:57;94990.66;;;29.46;25.06
18201;BME280;9226;47.858;9.594;2023-03-22T08:28:22;94995.25;;;29.62;25.09
18201;BME280;9226;47.858;9.594;2023-03-22T08:30:48;94995.84;;;30.19;24.62
18201;BME280;9226;47.858;9.594;2023-03-22T08:33:14;94989.53;;;29.41;25.04
18201;BME280;9226;47.858;9.594;2023-03-22T08:35:40;94995.34;;;29.72;24.90
18201;BME280;9226;47.858;9.594;2023-03-22T08:38:06;94989.28;;;29.65;25.17
18201;BME280;9226;47.858;9.594;2023-03-22T08:40:31;94992.03;;;28.19;25.47
18201;BME280;9226;47.858;9.594;2023-03-22T08:42:57;94988.66;;;29.36;25.77
18201;BME280;9226;47.858;9.594;2023-03-22T08:45:23;94977.22;;;30.43;24.58
18201;BME280;9226;47.858;9.594;2023-03-22T08:47:49;94981.47;;;30.98;24.35
18201;BME280;9226;47.858;9.594;2023-03-22T08:50:15;94972.69;;;31.49;23.91
18201;BME280;9226;47.858;9.594;2023-03-22T08:52:40;94980.84;;;30.91;23.54
18201;BME280;9226;47.858;9.594;2023-03-22T08:55:07;94980.03;;;30.53;23.78
18201;BME280;9226;47.858;9.594;2023-03-22T08:57:33;94979.22;;;30.53;23.58
18201;BME280;9226;47.858;9.594;2023-03-22T08:59:58;94988.75;;;29.90;24.34
18201;BME280;9226;47.858;9.594;2023-03-22T09:02:25;94985.56;;;29.10;24.59
18201;BME280;9226;47.858;9.594;2023-03-22T09:04:51;94984.94;;;29.47;24.51
18201;BME280;9226;47.858;9.594;2023-03-22T09:07:17;94981.72;;;28.55;25.47
18201;BME280;9226;47.858;9.594;2023-03-22T09:09:44;94972.31;;;29.19;24.83
18201;BME280;9226;47.858;9.594;2023-03-22T09:12:10;94980.81;;;29.67;24.75
18201;BME280;9226;47.858;9.594;2023-03-22T09:14:35;94988.34;;;29.32;24.51
18201;BME280;9226;47.858;9.594;2023-03-22T09:17:01;94978.09;;;30.21;24.49
18201;BME280;9226;47.858;9.594;2023-03-22T09:19:27;94980.00;;;30.48;23.94
18201;BME280;9226;47.858;9.594;2023-03-22T09:21:52;94985.03;;;30.99;23.06
18201;BME280;9226;47.858;9.594;2023-03-22T09:24:18;94978.16;;;31.44;23.09
18201;BME280;9226;47.858;9.594;2023-03-22T09:26:44;94981.00;;;31.70;22.91
18201;BME280;9226;47.858;9.594;2023-03-22T09:29:10;94978.59;;;31.26;22.42
18201;BME280;9226;47.858;9.594;2023-03-22T09:31:35;94979.00;;;30.27;22.64
18201;BME280;9226;47.858;9.594;2023-03-22T09:34:01;94974.00;;;31.42;22.96
18201;BME280;9226;47.858;9.594;2023-03-22T09:36:26;94977.19;;;31.71;22.44
18201;BME280;9226;47.858;9.594;2023-03-22T09:38:51;94981.00;;;31.75;22.26
18201;BME280;9226;47.858;9.594;2023-03-22T09:41:24;94975.00;;;31.83;22.19
18201;BME280;9226;47.858;9.594;2023-03-22T09:44:01;94975.41;;;31.44;22.47
18201;BME280;9226;47.858;9.594;2023-03-22T09:46:40;94963.34;;;31.45;22.50
18201;BME280;9226;47.858;9.594;2023-03-22T09:49:21;94960.50;;;31.19;22.38
18201;BME280;9226;47.858;9.594;2023-03-22T09:51:49;94958.88;;;31.29;22.57
18201;BME280;9226;47.858;9.594;2023-03-22T09:54:18;94965.59;;;30.63;22.90
18201;BME280;9226;47.858;9.594;2023-03-22T09:56:54;94967.81;;;30.66;23.24
18201;BME280;9226;47.858;9.594;2023-03-22T10:10:23;94945.94;;;31.92;21.71
18201;BME280;9226;47.858;9.594;2023-03-22T10:13:25;94944.00;;;31.72;21.71
18201;BME280;9226;47.858;9.594;2023-03-22T10:15:55;94947.03;;;31.76;21.54
18201;BME280;9226;47.858;9.594;2023-03-22T10:18:32;94941.03;;;32.05;21.35
18201;BME280;9226;47.858;9.594;2023-03-22T10:21:11;94937.25;;;32.42;20.20
18201;BME280;9226;47.858;9.594;2023-03-22T10:23:38;94932.28;;;32.28;21.05
18201;BME280;9226;47.858;9.594;2023-03-22T10:26:33;94926.22;;;32.06;19.73
18201;BME280;9226;47.858;9.594;2023-03-22T10:28:59;94925.75;;;31.41;20.23
18201;BME280;9226;47.858;9.594;2023-03-22T10:31:28;94930.81;;;31.01;21.10
18201;BME280;9226;47.858;9.594;2023-03-22T10:33:58;94927.63;;;31.25;21.32
18201;BME280;9226;47.858;9.594;2023-03-22T10:36:29;94920.97;;;31.10;21.26
18201;BME280;9226;47.858;9.594;2023-03-22T10:39:10;94917.25;;;31.37;21.27
18201;BME280;9226;47.858;9.594;2023-03-22T10:41:40;94919.75;;;30.43;21.26
18201;BME280;9226;47.858;9.594;2023-03-22T10:44:07;94920.19;;;30.67;21.82
18201;BME280;9226;47.858;9.594;2023-03-22T10:46:37;94907.28;;;31.10;22.02
18201;BME280;9226;47.858;9.594;2023-03-22T10:49:04;94909.84;;;30.74;21.53
18201;BME280;9226;47.858;9.594;2023-03-22T10:51:39;94909.16;;;30.57;21.45
18201;BME280;9226;47.858;9.594;2023-03-22T10:54:05;94901.03;;;30.72;21.79
18201;BME280;9226;47.858;9.594;2023-03-22T10:56:36;94898.94;;;30.90;21.05
18201;BME280;9226;47.858;9.594;2023-03-22T10:59:01;94902.28;;;29.84;21.94
18201;BME280;9226;47.858;9.594;2023-03-22T11:01:32;94910.41;;;30.06;21.88
18201;BME280;9226;47.858;9.594;2023-03-22T11:04:06;94892.69;;;29.10;22.26
18201;BME280;9226;47.858;9.594;2023-03-22T11:06:37;94884.78;;;29.58;22.61
18201;BME280;9226;47.858;9.594;2023-03-22T11:09:15;94882.28;;;29.07;22.27
18201;BME280;9226;47.858;9.594;2023-03-22T11:11:48;94886.63;;;28.86;22.59
18201;BME280;9226;47.858;9.594;2023-03-22T11:14:19;94881.94;;;28.59;22.41
18201;BME280;9226;47.858;9.594;2023-03-22T11:19:36;94874.53;;;28.04;23.19
18201;BME280;9226;47.858;9.594;2023-03-22T11:24:59;94860.53;;;28.34;23.03
18201;BME280;9226;47.858;9.594;2023-03-22T11:27:32;94853.81;;;28.03;23.54
18201;BME280;9226;47.858;9.594;2023-03-22T11:32:47;94857.38;;;27.00;23.54
18201;BME280;9226;47.858;9.594;2023-03-22T11:35:22;94863.75;;;27.05;23.90
18201;BME280;9226;47.858;9.594;2023-03-22T11:37:52;94855.97;;;27.26;23.77
18201;BME280;9226;47.858;9.594;2023-03-22T11:40:21;94855.81;;;27.61;24.15
18201;BME280;9226;47.858;9.594;2023-03-22T11:42:51;94853.97;;;27.33;23.77
18201;BME280;9226;47.858;9.594;2023-03-22T11:45:29;94854.16;;;27.60;23.39
18201;BME280;9226;47.858;9.594;2023-03-22T11:48:05;94852.34;;;27.49;23.52
18201;BME280;9226;47.858;9.594;2023-03-22T11:50:34;94839.47;;;27.04;24.09
18201;BME280;9226;47.858;9.594;2023-03-22T11:53:02;94854.28;;;26.56;24.56
18201;BME280;9226;47.858;9.594;2023-03-22T11:55:29;94855.41;;;26.83;24.65
18201;BME280;9226;47.858;9.594;2023-03-22T11:57:56;94838.41;;;26.76;24.72
18201;BME280;9226;47.858;9.594;2023-03-22T12:00:27;94846.13;;;26.96;24.67
18201;BME280;9226;47.858;9.594;2023-03-22T12:02:56;94844.19;;;26.56;24.45
18201;BME280;9226;47.858;9.594;2023-03-22T12:05:30;94845.69;;;26.87;24.62
18201;BME280;9226;47.858;9.594;2023-03-22T12:08:02;94840.91;;;26.54;24.64
18201;BME280;9226;47.858;9.594;2023-03-22T12:10:38;94841.75;;;26.31;24.89
18201;BME280;9226;47.858;9.594;2023-03-22T12:13:25;94836.91;;;26.21;24.95
18201;BME280;9226;47.858;9.594;2023-03-22T12:15:56;94827.28;;;25.59;25.14
18201;BME280;9226;47.858;9.594;2023-03-22T12:18:37;94831.94;;;25.82;26.04
18201;BME280;9226;47.858;9.594;2023-03-22T12:21:04;94817.41;;;25.65;25.37
18201;BME280;9226;47.858;9.594;2023-03-22T12:23:32;94823.00;;;25.40;26.13
18201;BME280;9226;47.858;9.594;2023-03-22T12:26:06;94824.94;;;25.63;25.80
18201;BME280;9226;47.858;9.594;2023-03-22T12:28:50;94812.66;;;25.60;25.68
18201;BME280;9226;47.858;9.594;2023-03-22T12:31:23;94812.84;;;25.35;26.16
18201;BME280;9226;47.858;9.594;2023-03-22T12:33:57;94809.97;;;25.30;26.02
18201;BME280;9226;47.858;9.594;2023-03-22T12:36:44;94808.84;;;25.07;26.28
18201;BME280;9226;47.858;9.594;2023-03-22T12:39:43;94810.13;;;24.56;26.28
18201;BME280;9226;47.858;9.594;2023-03-22T12:45:20;94808.22;;;24.38;26.18
18201;BME280;9226;47.858;9.594;2023-03-22T12:47:50;94809.38;;;24.30;26.09
18201;BME280;9226;47.858;9.594;2023-03-22T12:50:21;94796.25;;;23.90;26.52
18201;BME280;9226;47.858;9.594;2023-03-22T12:52:52;94800.50;;;23.54;27.20
18201;BME280;9226;47.858;9.594;2023-03-22T12:55:27;94790.22;;;23.12;27.01
18201;BME280;9226;47.858;9.594;2023-03-22T12:57:52;94787.81;;;22.91;27.74
18201;BME280;9226;47.858;9.594;2023-03-22T13:03:04;94782.25;;;22.86;28.26
18201;BME280;9226;47.858;9.594;2023-03-22T13:05:32;94774.94;;;22.86;28.33
18201;BME280;9226;47.858;9.594;2023-03-22T13:07:58;94778.88;;;22.90;28.68
18201;BME280;9226;47.858;9.594;2023-03-22T13:21:20;94766.13;;;22.66;28.53
18201;BME280;9226;47.858;9.594;2023-03-22T13:24:18;94771.81;;;22.51;28.99
18201;BME280;9226;47.858;9.594;2023-03-22T13:26:51;94762.75;;;22.32;28.51
18201;BME280;9226;47.858;9.594;2023-03-22T13:31:55;94749.97;;;22.00;29.08
18201;BME280;9226;47.858;9.594;2023-03-22T13:34:36;94759.94;;;22.00;29.39
18201;BME280;9226;47.858;9.594;2023-03-22T13:37:08;94751.41;;;22.03;29.27
18201;BME280;9226;47.858;9.594;2023-03-22T13:39:35;94751.09;;;22.25;29.21
18201;BME280;9226;47.858;9.594;2023-03-22T13:42:20;94748.63;;;22.23;29.16
18201;BME280;9226;47.858;9.594;2023-03-22T13:44:54;94752.81;;;22.12;28.63
18201;BME280;9226;47.858;9.594;2023-03-22T13:50:01;94749.59;;;21.90;28.92
18201;BME280;9226;47.858;9.594;2023-03-22T13:52:34;94748.84;;;22.21;28.93
18201;BME280;9226;47.858;9.594;2023-03-22T13:55:01;94741.53;;;22.29;28.75
18201;BME280;9226;47.858;9.594;2023-03-22T13:57:43;94736.91;;;22.49;28.94
18201;BME280;9226;47.858;9.594;2023-03-22T14:00:36;94735.22;;;22.48;28.57
18201;BME280;9226;47.858;9.594;2023-03-22T14:03:15;94735.09;;;22.36;27.61
18201;BME280;9226;47.858;9.594;2023-03-22T14:05:45;94735.16;;;22.62;27.97
18201;BME280;9226;47.858;9.594;2023-03-22T14:08:23;94726.00;;;22.63;27.50
18201;BME280;9226;47.858;9.594;2023-03-22T14:11:01;94742.22;;;22.63;27.47
18201;BME280;9226;47.858;9.594;2023-03-22T14:13:38;94734.38;;;22.54;27.43
18201;BME280;9226;47.858;9.594;2023-03-22T14:16:12;94726.91;;;22.50;27.01
18201;BME280;9226;47.858;9.594;2023-03-22T14:18:41;94713.66;;;22.42;27.09
18201;BME280;9226;47.858;9.594;2023-03-22T14:21:12;94722.44;;;22.30;27.23
18201;BME280;9226;47.858;9.594;2023-03-22T14:23:51;94714.53;;;22.29;26.58
18201;BME280;9226;47.858;9.594;2023-03-22T14:26:24;94711.22;;;22.33;27.12
18201;BME280;9226;47.858;9.594;2023-03-22T14:28:50;94712.69;;;22.22;27.43
18201;BME280;9226;47.858;9.594;2023-03-22T14:31:26;94709.16;;;22.15;27.61
18201;BME280;9226;47.858;9.594;2023-03-22T14:33:54;94700.88;;;22.10;27.10
18201;BME280;9226;47.858;9.594;2023-03-22T14:36:21;94710.22;;;22.14;27.29
18201;BME280;9226;47.858;9.594;2023-03-22T14:38:49;94700.50;;;22.07;27.25
18201;BME280;9226;47.858;9.594;2023-03-22T14:41:23;94701.38;;;21.94;27.07